createdAt,value
2023-01-29T04:39:55.228Z,2.40
2023-01-29T04:42:35.369Z,2.36
2023-01-29T04:45:25.416Z,2.34
2023-01-29T04:48:13.845Z,2.33
2023-01-29T04:50:46.812Z,2.35
2023-01-29T04:53:23.785Z,2.36
2023-01-29T04:55:55.810Z,2.37
2023-01-29T04:58:25.055Z,2.39
2023-01-29T05:00:54.222Z,2.39
2023-01-29T05:03:24.613Z,2.39
2023-01-29T05:05:51.535Z,2.42
2023-01-29T05:08:21.380Z,2.42
2023-01-29T05:10:54.620Z,2.43
2023-01-29T05:13:23.144Z,2.47
2023-01-29T05:15:56.578Z,2.48
2023-01-29T05:18:23.183Z,2.53
2023-01-29T05:20:50.090Z,2.53
2023-01-29T05:23:22.550Z,2.54
2023-01-29T05:25:50.517Z,2.55
2023-01-29T05:28:17.425Z,2.57
2023-01-29T05:30:52.354Z,2.55
2023-01-29T05:33:27.053Z,2.56
2023-01-29T05:35:53.965Z,2.59
2023-01-29T05:38:20.391Z,2.60
2023-01-29T05:40:47.408Z,2.62
2023-01-29T05:43:16.399Z,2.63
2023-01-29T05:45:43.013Z,2.64
2023-01-29T05:48:09.541Z,2.64
2023-01-29T05:50:36.627Z,2.66
2023-01-29T05:53:03.028Z,2.67
2023-01-29T05:55:29.608Z,2.65
2023-01-29T05:57:56.151Z,2.66
2023-01-29T06:00:22.612Z,2.67
2023-01-29T06:02:49.586Z,2.68
2023-01-29T06:05:16.029Z,2.67
2023-01-29T06:07:45.352Z,2.66
2023-01-29T06:10:15.022Z,2.67
2023-01-29T06:12:43.149Z,2.67
2023-01-29T06:15:10.873Z,2.67
2023-01-29T06:17:37.378Z,2.66
2023-01-29T06:20:05.136Z,2.65
2023-01-29T06:22:32.893Z,2.67
2023-01-29T06:24:59.232Z,2.67
2023-01-29T06:27:25.678Z,2.67
2023-01-29T06:29:52.151Z,2.66
2023-01-29T06:32:18.625Z,2.66
2023-01-29T06:34:45.027Z,2.65
2023-01-29T06:37:11.453Z,2.65
2023-01-29T06:39:37.860Z,2.65
2023-01-29T06:42:04.386Z,2.64
2023-01-29T06:44:30.790Z,2.64
2023-01-29T06:46:57.373Z,2.63
2023-01-29T06:49:23.811Z,2.60
2023-01-29T06:51:50.221Z,2.58
2023-01-29T06:54:16.630Z,2.55
2023-01-29T06:56:43.025Z,2.51
2023-01-29T06:59:11.082Z,2.48
2023-01-29T07:01:41.061Z,2.47
2023-01-29T07:04:07.550Z,2.46
2023-01-29T07:06:35.067Z,2.43
2023-01-29T07:09:02.357Z,2.40
2023-01-29T07:11:28.879Z,2.38
2023-01-29T07:13:55.306Z,2.36
2023-01-29T07:16:21.857Z,2.35
2023-01-29T07:18:48.284Z,2.35
2023-01-29T07:21:14.786Z,2.36
2023-01-29T07:23:41.271Z,2.36
2023-01-29T07:26:07.827Z,2.34
2023-01-29T07:28:38.196Z,2.34
2023-01-29T07:31:05.331Z,2.34
2023-01-29T07:33:32.284Z,2.36
2023-01-29T07:35:58.935Z,2.36
2023-01-29T07:38:25.648Z,2.38
2023-01-29T07:40:53.042Z,2.40
2023-01-29T07:43:19.462Z,2.41
2023-01-29T07:45:46.038Z,2.43
2023-01-29T07:48:13.373Z,2.45
2023-01-29T07:50:40.487Z,2.47
2023-01-29T07:53:07.332Z,2.50
2023-01-29T07:55:33.952Z,2.51
2023-01-29T07:58:03.046Z,2.51
2023-01-29T08:00:31.341Z,2.51
2023-01-29T08:03:06.115Z,2.52
2023-01-29T08:05:33.085Z,2.54
2023-01-29T08:08:06.597Z,2.54
2023-01-29T08:10:35.248Z,2.54
2023-01-29T08:13:03.035Z,2.54
2023-01-29T08:15:29.884Z,2.54
2023-01-29T08:17:58.285Z,2.56
2023-01-29T08:20:25.782Z,2.55
2023-01-29T08:23:06.353Z,2.53
2023-01-29T08:25:33.224Z,2.56
2023-01-29T08:28:00.504Z,2.57
2023-01-29T08:30:30.455Z,2.59
2023-01-29T08:32:57.038Z,2.62
2023-01-29T08:35:24.049Z,2.65
2023-01-29T08:37:59.309Z,2.66
2023-01-29T08:40:26.981Z,2.69
2023-01-29T08:42:53.368Z,2.71
2023-01-29T08:45:19.765Z,2.76
2023-01-29T08:47:47.847Z,2.78
2023-01-29T08:50:15.368Z,2.80
2023-01-29T08:52:43.219Z,2.81
2023-01-29T08:55:10.451Z,2.84
2023-01-29T08:57:37.972Z,2.89
2023-01-29T09:00:06.017Z,2.91
2023-01-29T09:02:32.752Z,2.96
2023-01-29T09:04:59.273Z,3.01
2023-01-29T09:07:25.719Z,3.05
2023-01-29T09:09:52.190Z,3.12
2023-01-29T09:12:18.631Z,3.18
2023-01-29T09:14:45.112Z,3.24
2023-01-29T09:17:11.514Z,3.25
2023-01-29T09:19:37.927Z,3.31
2023-01-29T09:22:04.328Z,3.34
2023-01-29T09:24:30.820Z,3.37
2023-01-29T09:26:57.235Z,3.41
2023-01-29T09:29:23.620Z,3.45
2023-01-29T09:31:50.148Z,3.46
2023-01-29T09:34:16.627Z,3.49
2023-01-29T09:36:43.181Z,3.52
2023-01-29T09:39:09.748Z,3.54
2023-01-29T09:41:52.377Z,3.52
2023-01-29T09:44:50.084Z,3.56
2023-01-29T09:47:18.382Z,3.59
2023-01-29T09:50:07.193Z,3.57
2023-01-29T09:52:38.808Z,3.61
2023-01-29T09:55:39.323Z,3.63
2023-01-29T09:58:32.013Z,3.66
2023-01-29T10:01:10.304Z,3.71
2023-01-29T10:03:55.121Z,3.76
2023-01-29T10:06:33.559Z,3.77
2023-01-29T10:09:18.517Z,3.83
2023-01-29T10:12:11.258Z,3.84
2023-01-29T10:14:56.053Z,3.84
2023-01-29T10:17:47.152Z,3.86
2023-01-29T10:20:42.098Z,3.86
2023-01-29T10:23:30.098Z,3.89
2023-01-29T10:25:56.693Z,3.93
2023-01-29T10:28:34.386Z,3.90
2023-01-29T10:31:07.306Z,3.93
2023-01-29T10:33:49.018Z,3.95
2023-01-29T10:36:28.646Z,3.96
2023-01-29T10:38:55.994Z,3.98
2023-01-29T10:41:25.902Z,3.98
2023-01-29T10:44:01.235Z,3.98
2023-01-29T10:46:33.746Z,4.02
2023-01-29T10:49:15.183Z,4.00
2023-01-29T10:51:57.091Z,4.03
2023-01-29T10:54:50.114Z,4.04
2023-01-29T10:57:25.506Z,4.07
2023-01-29T11:00:07.921Z,4.07
2023-01-29T11:02:34.501Z,4.08
2023-01-29T11:05:01.213Z,4.08
2023-01-29T11:07:28.112Z,4.06
2023-01-29T11:10:15.082Z,4.06
2023-01-29T11:12:43.727Z,4.08
2023-01-29T11:15:32.375Z,4.04
2023-01-29T11:18:10.561Z,4.05
2023-01-29T11:20:37.350Z,4.08
2023-01-29T11:23:04.088Z,4.09
2023-01-29T11:25:32.778Z,4.11
2023-01-29T11:28:01.734Z,4.10
2023-01-29T11:30:32.427Z,4.08
2023-01-29T11:33:23.515Z,4.05
2023-01-29T11:35:52.505Z,4.08
2023-01-29T11:38:26.930Z,4.05
2023-01-29T11:41:04.428Z,4.06
2023-01-29T11:43:31.882Z,4.06
2023-01-29T11:46:05.212Z,4.02
2023-01-29T11:48:44.112Z,4.00
2023-01-29T11:54:25.327Z,4.03
2023-01-29T12:00:03.084Z,4.02
2023-01-29T12:03:35.055Z,4.03
2023-01-29T12:06:41.572Z,4.02
2023-01-29T12:10:10.784Z,4.03
2023-01-29T12:13:36.064Z,4.04
2023-01-29T12:16:14.793Z,4.07
2023-01-29T12:22:54.856Z,4.03
2023-01-29T12:25:28.265Z,4.05
2023-01-29T12:31:35.069Z,4.01
2023-01-29T12:34:25.563Z,4.02
2023-01-29T12:41:44.062Z,4.01
2023-01-29T12:48:22.203Z,4.04
2023-01-29T12:55:48.867Z,4.03
2023-01-29T12:58:22.971Z,4.04
2023-01-29T13:01:02.978Z,4.07
2023-01-29T13:03:59.151Z,4.02
2023-01-29T13:06:51.787Z,4.02
2023-01-29T13:15:47.202Z,4.00
2023-01-29T13:19:15.483Z,4.02
2023-01-29T13:21:44.024Z,4.06
2023-01-29T13:24:36.337Z,4.02
2023-01-29T13:27:33.239Z,4.05
2023-01-29T13:30:29.130Z,4.01
2023-01-29T13:36:18.003Z,4.05
2023-01-29T13:39:27.409Z,4.04
2023-01-29T13:41:56.213Z,4.07
2023-01-29T13:44:39.158Z,4.02
2023-01-29T13:47:39.326Z,4.03
2023-01-29T13:50:18.941Z,4.04
2023-01-29T13:52:54.558Z,4.04
2023-01-29T13:55:31.517Z,4.04
2023-01-29T13:58:03.154Z,4.04
2023-01-29T14:00:35.547Z,4.01
2023-01-29T14:03:04.568Z,4.02
2023-01-29T14:05:31.211Z,4.02
2023-01-29T14:08:02.118Z,3.99
2023-01-29T14:10:31.651Z,3.99
2023-01-29T14:13:03.855Z,3.97
2023-01-29T14:15:38.257Z,3.94
2023-01-29T14:18:10.922Z,3.93
2023-01-29T14:21:05.071Z,3.92
2023-01-29T14:23:41.564Z,3.96
2023-01-29T14:26:37.816Z,3.93
2023-01-29T14:29:16.471Z,3.95
2023-01-29T14:32:12.239Z,3.92
2023-01-29T14:34:47.612Z,3.94
2023-01-29T14:37:17.138Z,3.94
2023-01-29T14:40:12.817Z,3.92
2023-01-29T14:42:52.406Z,3.91
2023-01-29T14:45:35.467Z,3.88
2023-01-29T14:48:38.660Z,3.86
2023-01-29T14:51:17.128Z,3.82
2023-01-29T14:54:14.057Z,3.81
2023-01-29T14:56:46.855Z,3.81
2023-01-29T14:59:21.040Z,3.75
2023-01-29T15:01:53.433Z,3.73
2023-01-29T15:04:27.967Z,3.70
2023-01-29T15:07:09.711Z,3.63
2023-01-29T15:09:51.504Z,3.64
2023-01-29T15:12:24.525Z,3.59
2023-01-29T15:15:03.051Z,3.55
2023-01-29T15:17:46.226Z,3.50
2023-01-29T15:20:26.629Z,3.52
2023-01-29T15:22:53.159Z,3.55
2023-01-29T15:25:21.671Z,3.53
2023-01-29T15:27:49.390Z,3.51
2023-01-29T15:30:22.071Z,3.49
2023-01-29T15:32:49.462Z,3.51
2023-01-29T15:35:22.054Z,3.49
2023-01-29T15:38:00.600Z,3.49
2023-01-29T15:40:27.449Z,3.50
2023-01-29T15:42:54.091Z,3.50
2023-01-29T15:45:31.333Z,3.46
2023-01-29T15:48:05.615Z,3.44
2023-01-29T15:50:39.401Z,3.46
2023-01-29T15:53:10.080Z,3.46
2023-01-29T15:55:36.780Z,3.46
2023-01-29T15:58:04.186Z,3.46
2023-01-29T16:00:31.445Z,3.47
2023-01-29T16:03:00.644Z,3.49
2023-01-29T16:05:33.135Z,3.48
2023-01-29T16:08:00.992Z,3.50
2023-01-29T16:10:31.253Z,3.51
2023-01-29T16:12:58.748Z,3.51
2023-01-29T16:15:34.829Z,3.48
2023-01-29T16:18:04.717Z,3.52
2023-01-29T16:20:37.686Z,3.49
2023-01-29T16:23:05.321Z,3.49
2023-01-29T16:25:33.872Z,3.52
2023-01-29T16:28:04.531Z,3.48
2023-01-29T16:30:31.162Z,3.47
2023-01-29T16:33:03.645Z,3.44
2023-01-29T16:35:30.561Z,3.42
2023-01-29T16:38:03.384Z,3.39
2023-01-29T16:43:16.967Z,3.39
2023-01-29T16:46:01.221Z,3.39
2023-01-29T16:48:32.389Z,3.35
2023-01-29T16:51:20.933Z,3.35
2023-01-29T16:53:57.216Z,3.32
2023-01-29T16:56:25.211Z,3.32
2023-01-29T16:58:53.309Z,3.32
2023-01-29T17:01:21.978Z,3.30
2023-01-29T17:04:13.486Z,3.23
2023-01-29T17:06:46.919Z,3.24
2023-01-29T17:09:25.415Z,3.22
2023-01-29T17:12:05.437Z,3.22
2023-01-29T17:14:34.319Z,3.23
2023-01-29T17:17:07.519Z,3.22
2023-01-29T17:19:33.977Z,3.22
2023-01-29T17:22:04.550Z,3.20
2023-01-29T17:24:31.545Z,3.20
2023-01-29T17:26:58.039Z,3.22
2023-01-29T17:29:28.929Z,3.19
2023-01-29T17:31:56.056Z,3.19
2023-01-29T17:34:23.958Z,3.20
2023-01-29T17:36:50.389Z,3.20
2023-01-29T17:39:23.184Z,3.19
2023-01-29T17:41:56.147Z,3.17
2023-01-29T17:44:23.184Z,3.22
2023-01-29T17:46:49.713Z,3.22
2023-01-29T17:49:25.269Z,3.21
2023-01-29T17:51:53.284Z,3.22
2023-01-29T17:54:20.525Z,3.22
2023-01-29T17:56:47.751Z,3.24
2023-01-29T17:59:16.317Z,3.25
2023-01-29T18:01:43.515Z,3.28
2023-01-29T18:04:10.087Z,3.29
2023-01-29T18:06:36.936Z,3.30
2023-01-29T18:09:04.216Z,3.32
2023-01-29T18:11:30.830Z,3.31
2023-01-29T18:13:57.722Z,3.33
2023-01-29T18:16:25.273Z,3.36
2023-01-29T18:18:52.457Z,3.37
2023-01-29T18:21:19.292Z,3.35
2023-01-29T18:23:45.785Z,3.37
2023-01-29T18:26:13.194Z,3.37
2023-01-29T18:28:40.320Z,3.38
2023-01-29T18:31:06.848Z,3.38
2023-01-29T18:33:34.214Z,3.39
2023-01-29T18:36:00.758Z,3.39
2023-01-29T18:38:27.477Z,3.39
2023-01-29T18:40:53.881Z,3.43
2023-01-29T18:43:20.313Z,3.44
2023-01-29T18:45:46.811Z,3.44
2023-01-29T18:48:14.191Z,3.47
2023-01-29T18:51:10.303Z,3.42
2023-01-29T18:53:34.995Z,3.49
2023-01-29T18:56:05.969Z,3.47
2023-01-29T18:58:35.799Z,3.48
2023-01-29T19:01:10.055Z,3.48
2023-01-29T19:03:37.840Z,3.49
2023-01-29T19:06:07.007Z,3.46
2023-01-29T19:08:34.287Z,3.50
2023-01-29T19:11:03.762Z,3.47
2023-01-29T19:13:33.946Z,3.51
2023-01-29T19:16:00.862Z,3.53
2023-01-29T19:18:28.308Z,3.52
2023-01-29T19:20:55.236Z,3.51
2023-01-29T19:23:22.786Z,3.52
2023-01-29T19:25:49.323Z,3.53
2023-01-29T19:28:15.835Z,3.55
2023-01-29T19:30:42.322Z,3.52
2023-01-29T19:33:10.423Z,3.55
2023-01-29T19:35:37.056Z,3.55
2023-01-29T19:38:03.986Z,3.55
2023-01-29T19:40:30.469Z,3.56
2023-01-29T19:42:56.945Z,3.57
2023-01-29T19:45:49.945Z,3.57
2023-01-29T19:48:13.346Z,3.58
2023-01-29T19:50:39.811Z,3.57
2023-01-29T19:53:06.340Z,3.56
2023-01-29T19:55:32.910Z,3.57
2023-01-29T19:57:59.535Z,3.58
2023-01-29T20:00:25.912Z,3.57
2023-01-29T20:02:52.377Z,3.57
2023-01-29T20:05:20.182Z,3.58
2023-01-29T20:07:46.856Z,3.61
2023-01-29T20:10:17.420Z,3.63
2023-01-29T20:12:45.369Z,3.64
2023-01-29T20:15:13.200Z,3.67
2023-01-29T20:17:39.632Z,3.67
2023-01-29T20:20:06.794Z,3.70
2023-01-29T20:22:33.366Z,3.73
2023-01-29T20:24:59.821Z,3.72
2023-01-29T20:27:26.256Z,3.74
2023-01-29T20:29:52.798Z,3.75
2023-01-29T20:32:19.349Z,3.78
2023-01-29T20:34:49.548Z,3.81
2023-01-29T20:37:16.039Z,3.82
2023-01-29T20:39:42.469Z,3.85
2023-01-29T20:42:08.851Z,3.86
2023-01-29T20:44:35.292Z,3.87
2023-01-29T20:47:02.644Z,3.91
2023-01-29T20:49:29.153Z,3.91
2023-01-29T20:51:55.586Z,3.94
2023-01-29T20:54:22.201Z,3.96
2023-01-29T20:56:49.014Z,3.97
2023-01-29T20:59:15.667Z,3.98
2023-01-29T21:01:43.179Z,3.99
2023-01-29T21:04:09.589Z,4.00
2023-01-29T21:06:36.190Z,4.03
2023-01-29T21:09:02.581Z,4.06
2023-01-29T21:11:29.154Z,4.07
2023-01-29T21:13:57.717Z,4.10
2023-01-29T21:16:26.106Z,4.12
2023-01-29T21:18:55.896Z,4.13
2023-01-29T21:21:26.442Z,4.14
2023-01-29T21:23:52.923Z,4.16
2023-01-29T21:26:19.335Z,4.17
2023-01-29T21:28:46.295Z,4.19
2023-01-29T21:31:17.654Z,4.19
2023-01-29T21:33:44.636Z,4.22
2023-01-29T21:36:11.485Z,4.24
2023-01-29T21:38:38.641Z,4.25
2023-01-29T21:41:08.065Z,4.28
2023-01-29T21:43:34.526Z,4.28
2023-01-29T21:46:04.962Z,4.29
2023-01-29T21:48:31.766Z,4.32
2023-01-29T21:50:58.159Z,4.34
2023-01-29T21:53:24.676Z,4.36
2023-01-29T21:55:51.719Z,4.39
2023-01-29T21:58:19.759Z,4.38
2023-01-29T22:00:48.706Z,4.43
2023-01-29T22:03:15.581Z,4.45
2023-01-29T22:05:42.130Z,4.49
2023-01-29T22:08:09.521Z,4.49
2023-01-29T22:10:36.517Z,4.51
2023-01-29T22:13:03.518Z,4.53
2023-01-29T22:15:29.932Z,4.54
2023-01-29T22:17:56.343Z,4.57
2023-01-29T22:20:29.857Z,4.61
2023-01-29T22:23:00.475Z,4.63
2023-01-29T22:25:27.311Z,4.64
2023-01-29T22:27:53.790Z,4.66
2023-01-29T22:30:20.591Z,4.67
2023-01-29T22:32:47.126Z,4.68
2023-01-29T22:35:13.727Z,4.68
2023-01-29T22:37:40.167Z,4.68
2023-01-29T22:40:07.290Z,4.68
2023-01-29T22:47:59.984Z,4.69
2023-01-29T22:50:26.493Z,4.69
2023-01-29T22:52:53.454Z,4.68
2023-01-29T22:55:20.035Z,4.66
2023-01-29T22:57:49.540Z,4.67
2023-01-29T23:00:16.829Z,4.70
2023-01-29T23:02:43.467Z,4.71
2023-01-29T23:05:09.956Z,4.73
2023-01-29T23:07:36.573Z,4.76
2023-01-29T23:10:03.883Z,4.78
2023-01-29T23:12:30.302Z,4.81
2023-01-29T23:14:56.725Z,4.82
2023-01-29T23:17:23.276Z,4.87
2023-01-29T23:19:49.623Z,4.89
2023-01-29T23:22:16.163Z,4.90
2023-01-29T23:24:42.546Z,4.93
2023-01-29T23:27:15.898Z,4.95
2023-01-29T23:29:43.327Z,4.98
2023-01-29T23:32:11.093Z,5.02
2023-01-29T23:34:37.620Z,5.01
2023-01-29T23:37:04.789Z,5.03
2023-01-29T23:39:31.735Z,5.06
2023-01-29T23:41:58.315Z,5.06
2023-01-29T23:44:24.818Z,5.08
2023-01-29T23:46:51.301Z,5.09
2023-01-29T23:49:18.725Z,5.09
2023-01-29T23:51:47.515Z,5.13
2023-01-29T23:54:14.138Z,5.13
2023-01-29T23:56:40.634Z,5.16
2023-01-29T23:59:07.208Z,5.17
